Time;durP1;ratioP1;P1;durP2;ratioP2;P2;SDS_P1;SDS_P2;PMS_P1;PMS_P2;Temp;Humidity;BMP_temperature;BMP_pressure;BME280_temperature;BME280_humidity;BME280_pressure;Samples;Min_cycle;Max_cycle;Signal;HPM_P1;HPM_P2
2022/06/02 00:02:11;;;;;;;6.28;4.68;;;;;;;13.49;100.00;99535.78;4946477;29;20057;-80
2022/06/02 00:04:52;;;;;;;6.63;4.95;;;;;;;13.54;100.00;99549.41;4954193;29;20047;-80
2022/06/02 00:07:30;;;;;;;7.65;4.30;;;;;;;13.52;100.00;99553.03;4953596;29;20123;-80
2022/06/02 00:10:10;;;;;;;4.80;3.97;;;;;;;13.48;100.00;99549.75;4953623;29;20456;-80
2022/06/02 00:12:41;;;;;;;4.32;3.63;;;;;;;13.48;100.00;99549.75;4953978;29;20497;-80
2022/06/02 00:15:09;;;;;;;4.03;3.63;;;;;;;13.47;100.00;99559.38;4952502;28;20079;-80
2022/06/02 00:17:50;;;;;;;4.22;3.83;;;;;;;13.44;100.00;99561.34;5015314;28;20037;-80
2022/06/02 00:20:26;;;;;;;4.05;3.65;;;;;;;13.33;100.00;99567.22;5033983;28;20029;-80
2022/06/02 00:23:06;;;;;;;5.05;3.83;;;;;;;13.29;100.00;99567.50;5034038;28;20492;-80
2022/06/02 00:25:40;;;;;;;4.47;3.40;;;;;;;13.24;100.00;99575.63;5016282;28;20025;-80
2022/06/02 00:28:42;;;;;;;4.57;3.10;;;;;;;13.16;100.00;99573.41;5033857;28;20021;-80
2022/06/02 00:31:25;;;;;;;7.05;3.65;;;;;;;13.12;100.00;99571.91;4991843;28;20039;-80
2022/06/02 00:34:12;;;;;;;3.63;3.33;;;;;;;13.02;100.00;99578.63;4992238;28;20030;-80
2022/06/02 00:36:59;;;;;;;3.88;3.58;;;;;;;12.87;100.00;99577.72;4975654;28;20077;-79
2022/06/02 00:39:24;;;;;;;4.00;3.65;;;;;;;12.77;100.00;99584.41;4991999;28;20026;-80
2022/06/02 00:41:52;;;;;;;3.78;3.42;;;;;;;12.70;100.00;99585.66;4991962;28;20134;-80
2022/06/02 00:44:23;;;;;;;6.75;3.40;;;;;;;12.64;100.00;99575.53;4991748;28;20087;-80
2022/06/02 00:47:02;;;;;;;4.10;3.60;;;;;;;12.63;100.00;99569.47;4975455;28;20500;-80
2022/06/02 00:49:51;;;;;;;4.10;3.70;;;;;;;12.58;100.00;99555.84;4975127;28;20046;-80
2022/06/02 00:52:19;;;;;;;5.40;4.28;;;;;;;12.64;100.00;99565.09;4975235;28;20037;-80
2022/06/02 00:58:09;;;;;;;4.70;4.20;;;;;;;12.70;100.00;99577.84;4991822;28;20053;-80
2022/06/02 01:00:43;;;;;;;;;;;;;;;12.74;100.00;99585.41;4992022;28;20026;-80
2022/06/02 01:03:17;;;;;;;4.88;4.45;;;;;;;12.67;100.00;99567.53;4991646;28;20380;-80
2022/06/02 01:05:48;;;;;;;8.02;6.57;;;;;;;12.70;100.00;99581.28;4991476;28;20117;-80
2022/06/02 01:08:42;;;;;;;12.25;10.23;;;;;;;12.64;100.00;99567.72;5016816;28;20124;-80
2022/06/02 01:11:25;;;;;;;13.52;11.48;;;;;;;12.63;100.00;99571.25;5015299;28;20030;-80
2022/06/02 01:14:32;;;;;;;6.78;5.78;;;;;;;12.71;100.00;99592.56;5033283;28;20554;-79
2022/06/02 01:17:21;;;;;;;6.22;4.82;;;;;;;12.72;100.00;99591.63;4974784;28;20048;-80
2022/06/02 01:20:11;;;;;;;6.85;5.38;;;;;;;12.72;100.00;99591.63;4991443;28;20038;-80
2022/06/02 01:23:09;;;;;;;6.65;4.97;;;;;;;12.69;100.00;99599.66;4991039;28;20100;-80
2022/06/02 01:25:49;;;;;;;5.80;5.07;;;;;;;12.64;100.00;99596.44;4974463;28;20034;-80
2022/06/02 01:28:39;;;;;;;15.90;9.93;;;;;;;12.59;100.00;99595.88;4990810;28;20061;-80
2022/06/02 01:31:26;;;;;;;148.35;69.40;;;;;;;12.51;100.00;99598.91;4974663;28;20506;-80
2022/06/02 01:34:17;;;;;;;74.95;35.67;;;;;;;12.47;100.00;99595.66;4990960;28;20042;-80
2022/06/02 01:36:45;;;;;;;21.88;12.57;;;;;;;12.39;100.00;99587.38;4974615;28;20026;-79
2022/06/02 01:39:29;;;;;;;11.40;7.93;;;;;;;12.43;100.00;99603.72;4990677;28;20406;-80
2022/06/02 01:42:12;;;;;;;10.77;7.57;;;;;;;12.39;100.00;99602.22;4974440;28;20039;-80
2022/06/02 01:44:43;;;;;;;7.97;6.40;;;;;;;12.29;100.00;99588.81;4990821;28;20034;-80
2022/06/02 01:47:31;;;;;;;6.63;5.75;;;;;;;12.32;100.00;99593.03;4990809;28;20081;-80
2022/06/02 01:50:11;;;;;;;6.28;5.63;;;;;;;12.31;100.00;99594.78;4990740;28;20069;-79
2022/06/02 01:52:41;;;;;;;5.88;5.38;;;;;;;12.26;100.00;99591.56;4992234;28;20041;-80
2022/06/02 01:55:18;;;;;;;7.75;5.78;;;;;;;12.18;100.00;99580.72;5014543;28;20041;-80
2022/06/02 01:58:32;;;;;;;6.47;5.88;;;;;;;12.18;100.00;99597.22;5032360;28;20117;-80
2022/06/02 02:01:18;;;;;;;6.20;5.50;;;;;;;12.16;100.00;99600.84;4974132;28;20044;-80
2022/06/02 02:04:17;;;;;;;7.50;5.57;;;;;;;12.12;100.00;99588.88;4990472;28;20047;-80
2022/06/02 02:06:43;;;;;;;7.55;6.63;;;;;;;12.09;100.00;99592.47;4951591;29;20047;-80
2022/06/02 02:09:18;;;;;;;6.93;6.28;;;;;;;12.16;100.00;99598.22;4935560;29;20047;-80
2022/06/02 02:11:52;;;;;;;6.15;5.55;;;;;;;12.11;100.00;99577.59;4935560;29;20102;-79
2022/06/02 02:14:23;;;;;;;6.40;5.75;;;;;;;12.24;100.00;99586.44;4935407;29;20074;-80
2022/06/02 02:16:59;;;;;;;5.80;5.30;;;;;;;12.22;100.00;99575.25;4935377;29;20098;-80
2022/06/02 02:19:50;;;;;;;6.60;5.82;;;;;;;12.21;100.00;99598.81;4935203;29;20027;-80
2022/06/02 02:22:39;;;;;;;6.65;5.80;;;;;;;12.21;100.00;99596.19;4935207;29;20036;-80
2022/06/02 02:25:17;;;;;;;5.82;5.28;;;;;;;12.19;100.00;99598.91;4935411;29;20123;-80
2022/06/02 02:28:03;;;;;;;6.50;5.80;;;;;;;12.31;100.00;99614.84;4951523;29;20042;-79
2022/06/02 02:30:44;;;;;;;6.25;5.65;;;;;;;12.35;100.00;99609.38;4951110;29;20046;-80
2022/06/02 02:33:26;;;;;;;7.13;5.93;;;;;;;12.38;100.00;99606.56;4951459;29;20035;-79
2022/06/02 02:36:00;;;;;;;6.90;5.65;;;;;;;12.40;100.00;99617.78;4951347;29;20058;-80
2022/06/02 02:39:00;;;;;;;6.40;5.80;;;;;;;12.43;100.00;99620.25;4954254;29;20042;-79
2022/06/02 02:41:42;;;;;;;6.55;5.85;;;;;;;12.43;100.00;99615.03;4955108;29;20475;-80
2022/06/02 02:44:34;;;;;;;7.65;6.03;;;;;;;12.51;100.00;99632.03;5004681;28;20099;-80
2022/06/02 02:47:17;;;;;;;7.28;6.57;;;;;;;12.46;100.00;99635.72;5018079;28;20435;-80
2022/06/02 02:50:07;;;;;;;6.45;5.85;;;;;;;12.55;100.00;99654.44;5017859;28;20033;-80
2022/06/02 02:52:45;;;;;;;6.65;5.95;;;;;;;12.48;100.00;99641.72;5035680;28;20366;-80
2022/06/02 02:55:17;;;;;;;7.13;5.90;;;;;;;12.54;100.00;99652.75;5035953;28;20049;-80
2022/06/02 02:57:53;;;;;;;7.60;6.55;;;;;;;12.50;100.00;99654.69;5035533;28;20033;-80
2022/06/02 03:01:07;;;;;;;11.23;6.95;;;;;;;12.51;100.00;99682.50;5035660;28;20034;-80
2022/06/02 03:04:13;;;;;;;7.20;6.10;;;;;;;12.44;100.00;99666.34;4993395;28;20041;-80
2022/06/02 03:06:42;;;;;;;6.50;5.75;;;;;;;12.53;100.00;99693.72;4935387;29;20514;-80
2022/06/02 03:09:18;;;;;;;6.43;5.82;;;;;;;12.45;100.00;99683.69;4935649;29;20044;-80
2022/06/02 03:11:52;;;;;;;8.55;6.75;;;;;;;12.50;100.00;99709.56;4919571;29;20044;-80
2022/06/02 03:14:58;;;;;;;8.10;6.45;;;;;;;12.41;100.00;99684.78;4919490;29;20073;-80
2022/06/02 03:17:45;;;;;;;7.10;6.20;;;;;;;12.51;100.00;99705.16;4919373;29;20087;-80
2022/06/02 03:20:34;;;;;;;7.35;6.65;;;;;;;12.44;100.00;99705.50;4919501;29;20503;-80
2022/06/02 03:23:06;;;;;;;7.13;6.40;;;;;;;12.48;100.00;99720.09;4919419;29;20033;-80
2022/06/02 03:25:42;;;;;;;7.15;6.45;;;;;;;12.52;100.00;99740.84;4919214;29;20042;-80
2022/06/02 03:28:29;;;;;;;8.93;7.07;;;;;;;12.53;100.00;99751.19;4919369;29;20047;-80
2022/06/02 03:31:15;;;;;;;8.40;7.25;;;;;;;12.55;100.00;99765.00;4935366;29;20051;-80
2022/06/02 03:34:08;;;;;;;8.38;6.60;;;;;;;12.57;100.00;99767.56;4919149;29;20126;-80
2022/06/02 03:36:57;;;;;;;7.82;6.53;;;;;;;12.57;100.00;99765.78;4919026;29;20044;-80
2022/06/02 03:39:50;;;;;;;12.27;7.50;;;;;;;12.58;100.00;99783.16;4947910;29;20094;-76
2022/06/02 03:42:33;;;;;;;8.23;6.90;;;;;;;12.57;100.00;99789.31;4954325;29;20101;-76
2022/06/02 03:45:07;;;;;;;8.27;6.53;;;;;;;12.57;100.00;99802.38;5035001;28;20034;-76
2022/06/02 03:48:12;;;;;;;7.63;6.93;;;;;;;12.57;100.00;99804.97;5034390;28;20690;-76
2022/06/02 03:51:06;;;;;;;11.93;7.25;;;;;;;12.53;100.00;99785.16;4992491;28;20088;-76
2022/06/02 03:53:51;;;;;;;9.60;7.85;;;;;;;12.51;100.00;99791.38;4992641;28;20393;-76
2022/06/02 03:56:50;;;;;;;8.80;7.22;;;;;;;12.49;100.00;99778.41;4992842;28;20490;-79
2022/06/02 03:59:18;;;;;;;9.50;7.43;;;;;;;12.48;100.00;99772.34;4975906;28;20129;-80
2022/06/02 04:01:58;;;;;;;9.02;8.13;;;;;;;12.48;100.00;99781.97;4992402;28;20046;-80
2022/06/02 04:04:40;;;;;;;7.57;6.88;;;;;;;12.51;100.00;99792.22;4976182;28;20065;-80
2022/06/02 04:07:27;;;;;;;7.38;6.63;;;;;;;12.53;100.00;99790.41;4992918;28;20134;-79
2022/06/02 04:10:29;;;;;;;9.48;6.07;;;;;;;12.53;100.00;99795.63;4992736;28;20038;-80
2022/06/02 04:16:10;;;;;;;10.27;7.70;;;;;;;12.52;100.00;99803.53;4992848;28;20493;-80
2022/06/02 04:22:09;;;;;;;8.93;7.00;;;;;;;12.48;100.00;99824.59;4992370;28;20476;-80
2022/06/02 04:25:07;;;;;;;7.43;6.35;;;;;;;12.45;100.00;99811.69;4992165;28;20499;-80
2022/06/02 04:27:42;;;;;;;6.80;5.60;;;;;;;12.53;100.00;99820.91;5014974;28;20041;-80
2022/06/02 04:30:53;;;;;;;5.88;4.63;;;;;;;12.53;100.00;99821.75;5016224;28;20033;-80
2022/06/02 04:33:28;;;;;;;5.43;3.92;;;;;;;12.49;100.00;99823.66;5016213;28;20065;-80
2022/06/02 04:36:08;;;;;;;5.03;4.53;;;;;;;12.48;100.00;99819.38;5015925;28;20495;-80
2022/06/02 04:38:49;;;;;;;4.78;4.15;;;;;;;12.51;100.00;99825.34;5015800;28;20032;-80
2022/06/02 04:41:32;;;;;;;5.88;3.88;;;;;;;12.54;100.00;99823.44;5033805;28;20018;-80
2022/06/02 04:44:16;;;;;;;5.05;3.97;;;;;;;12.55;100.00;99822.50;5033902;28;20042;-80
2022/06/02 04:47:25;;;;;;;4.40;3.95;;;;;;;12.61;100.00;99829.19;5011178;28;20037;-80
2022/06/02 04:50:09;;;;;;;4.68;3.78;;;;;;;12.66;100.00;99825.41;4914822;29;20044;-80
2022/06/02 04:52:52;;;;;;;3.58;3.28;;;;;;;12.72;100.00;99830.31;4914685;29;20034;-80
2022/06/02 04:55:47;;;;;;;3.80;3.50;;;;;;;12.78;100.00;99836.16;4914863;29;20504;-80
2022/06/02 04:58:43;;;;;;;3.85;3.25;;;;;;;12.76;100.00;99824.91;4915013;29;20088;-80
2022/06/02 05:01:23;;;;;;;3.53;3.22;;;;;;;12.85;100.00;99842.72;4914982;29;20396;-80
2022/06/02 05:04:19;;;;;;;3.40;3.10;;;;;;;12.88;100.00;99842.56;4915482;29;20088;-80
2022/06/02 05:07:16;;;;;;;3.60;3.00;;;;;;;12.90;100.00;99861.66;4914785;29;20445;-80
2022/06/02 05:09:56;;;;;;;3.47;3.17;;;;;;;12.90;100.00;99861.66;4914444;29;20036;-80
2022/06/02 05:12:45;;;;;;;5.03;3.45;;;;;;;12.98;100.00;99870.78;4914808;29;20048;-80
2022/06/02 05:15:48;;;;;;;3.92;3.15;;;;;;;13.01;100.00;99874.13;4914536;29;20025;-80
2022/06/02 05:18:27;;;;;;;3.50;3.20;;;;;;;12.95;100.00;99855.22;4925834;29;20507;-80
2022/06/02 05:21:09;;;;;;;3.75;3.45;;;;;;;12.86;100.00;99858.34;4933346;29;20122;-79
2022/06/02 05:24:05;;;;;;;4.80;3.25;;;;;;;12.86;100.00;99874.03;4933077;29;20499;-80
2022/06/02 05:27:14;;;;;;;3.20;2.90;;;;;;;12.65;100.00;99859.47;4967452;28;20072;-79
2022/06/02 05:29:51;;;;;;;3.13;2.83;;;;;;;12.60;100.00;99859.72;5013042;28;20037;-80
2022/06/02 05:32:19;;;;;;;3.20;2.90;;;;;;;12.53;100.00;99873.16;5013162;28;20030;-80
2022/06/02 05:34:56;;;;;;;6.22;3.17;;;;;;;12.50;100.00;99868.91;5012786;28;20038;-80
2022/06/02 05:37:40;;;;;;;2.78;2.58;;;;;;;12.47;100.00;99875.16;5011662;28;20018;-80
2022/06/02 05:40:23;;;;;;;3.10;2.80;;;;;;;12.63;100.00;99880.44;5013188;28;20093;-80
2022/06/02 05:43:18;;;;;;;2.70;2.50;;;;;;;12.85;100.00;99885.41;5012541;28;20022;-80
2022/06/02 05:46:42;;;;;;;3.83;2.67;;;;;;;13.23;100.00;99885.16;5011297;28;20028;-80
2022/06/02 05:49:14;;;;;;;5.35;2.65;;;;;;;13.93;100.00;99873.41;4932856;29;20054;-80
2022/06/02 05:52:02;;;;;;;2.60;2.40;;;;;;;14.94;100.00;99867.47;4916497;29;20039;-80
2022/06/02 05:54:57;;;;;;;5.28;2.70;;;;;;;15.86;100.00;99866.13;4932404;29;20138;-80
2022/06/02 05:57:35;;;;;;;2.83;2.63;;;;;;;16.25;99.57;99882.84;4933045;29;20040;-80
2022/06/02 06:00:08;;;;;;;3.97;2.60;;;;;;;15.86;99.27;99887.16;4932684;29;20047;-81
2022/06/02 06:02:36;;;;;;;4.03;3.03;;;;;;;15.58;100.00;99880.16;4932487;29;20043;-80
2022/06/02 06:05:13;;;;;;;4.05;2.83;;;;;;;15.36;99.96;99891.16;4932640;29;20063;-80
2022/06/02 06:08:00;;;;;;;4.13;3.25;;;;;;;15.17;100.00;99889.69;4932304;29;20039;-80
2022/06/02 06:10:51;;;;;;;4.30;3.28;;;;;;;15.49;100.00;99897.31;4932472;29;20448;-80
2022/06/02 06:13:36;;;;;;;4.75;3.92;;;;;;;16.65;98.16;99902.91;4916050;29;20040;-80
2022/06/02 06:16:07;;;;;;;5.03;3.20;;;;;;;18.09;92.72;99898.03;4932335;29;20051;-80
2022/06/02 06:18:54;;;;;;;5.28;2.85;;;;;;;19.14;87.94;99901.53;4932050;29;20132;-80
2022/06/02 06:21:27;;;;;;;3.83;2.58;;;;;;;20.04;84.28;99891.66;4916559;29;20458;-80
2022/06/02 06:24:04;;;;;;;2.83;2.47;;;;;;;20.92;80.30;99906.38;4969339;28;20039;-81
2022/06/02 06:26:37;;;;;;;3.63;2.28;;;;;;;21.62;76.80;99897.63;4996322;28;20037;-81
2022/06/02 06:29:37;;;;;;;2.67;2.10;;;;;;;23.67;73.12;99898.13;5011233;28;20145;-81
2022/06/02 06:32:20;;;;;;;2.53;2.28;;;;;;;28.13;58.64;99900.28;5012322;28;20025;-81
2022/06/02 06:35:30;;;;;;;2.63;2.08;;;;;;;32.11;41.58;99907.03;5012165;28;20026;-79
2022/06/02 06:38:09;;;;;;;1.92;1.70;;;;;;;35.46;32.67;99907.56;5010858;28;20030;-79
2022/06/02 06:41:06;;;;;;;5.18;1.92;;;;;;;37.42;28.18;99924.69;5011744;28;20101;-78
2022/06/02 06:43:43;;;;;;;2.22;1.60;;;;;;;39.15;23.39;99915.91;5012271;28;20034;-79
2022/06/02 06:46:29;;;;;;;3.15;2.20;;;;;;;40.49;21.46;99909.94;5012139;28;20096;-79
2022/06/02 06:49:15;;;;;;;1.88;1.77;;;;;;;41.54;19.25;99920.94;5010510;28;20041;-79
2022/06/02 06:51:54;;;;;;;2.00;1.80;;;;;;;42.63;18.70;99918.03;5010583;28;20113;-79
2022/06/02 06:54:19;;;;;;;1.85;1.75;;;;;;;43.23;17.41;99914.34;5005661;28;20435;-79
2022/06/02 06:56:54;;;;;;;1.70;1.60;;;;;;;43.68;16.81;99911.66;4990781;28;20038;-79
2022/06/02 06:59:46;;;;;;;1.73;1.63;;;;;;;43.99;16.46;99918.59;4992256;28;20081;-79
2022/06/02 07:02:28;;;;;;;2.60;1.70;;;;;;;44.60;15.37;99919.19;4992723;28;20077;-79
2022/06/02 07:05:01;;;;;;;2.10;1.60;;;;;;;45.09;15.05;99907.94;4992211;28;20057;-80
2022/06/02 07:07:35;;;;;;;1.90;1.67;;;;;;;44.82;15.05;99916.78;4992501;28;20026;-80
2022/06/02 07:10:04;;;;;;;1.67;1.58;;;;;;;45.20;14.60;99894.91;4990829;28;20027;-79
2022/06/02 07:15:51;;;;;;;2.60;1.80;;;;;;;46.83;13.63;99917.09;4992169;28;19916;-79
2022/06/02 07:18:41;;;;;;;1.58;1.48;;;;;;;46.51;13.41;99910.50;4990748;28;20039;-79
2022/06/02 07:21:20;;;;;;;1.80;1.50;;;;;;;46.80;12.71;99901.16;4992194;28;20026;-79
2022/06/02 07:24:08;;;;;;;1.60;1.50;;;;;;;47.57;12.72;99905.88;4993896;28;20038;-80
2022/06/02 07:27:05;;;;;;;1.27;1.25;;;;;;;45.15;13.51;99904.03;4995599;28;20109;-80
2022/06/02 07:29:43;;;;;;;1.60;1.50;;;;;;;45.08;13.90;99914.56;4995773;28;20093;-80
2022/06/02 07:32:43;;;;;;;1.63;1.40;;;;;;;46.40;13.06;99917.34;4995803;28;20493;-79
2022/06/02 07:35:40;;;;;;;1.92;1.60;;;;;;;47.18;12.58;99917.50;4995732;28;20030;-80
2022/06/02 07:38:21;;;;;;;1.70;1.60;;;;;;;47.26;12.54;99922.28;4994278;28;20026;-80
2022/06/02 07:40:59;;;;;;;1.70;1.60;;;;;;;45.49;12.96;99914.06;4995445;28;20030;-80
2022/06/02 07:43:48;;;;;;;1.83;1.57;;;;;;;43.81;14.82;99914.56;4995804;28;20377;-79
2022/06/02 07:46:32;;;;;;;2.45;1.98;;;;;;;44.81;13.66;99921.47;4995673;28;20072;-80
2022/06/02 07:49:23;;;;;;;1.73;1.63;;;;;;;44.88;13.38;99915.63;4973115;28;20049;-79
2022/06/02 07:52:08;;;;;;;1.73;1.63;;;;;;;45.79;13.13;99926.53;4956958;28;20027;-80
2022/06/02 07:55:00;;;;;;;1.50;1.40;;;;;;;46.67;12.07;99932.28;4987290;28;20409;-80
2022/06/02 07:57:50;;;;;;;2.95;1.63;;;;;;;47.29;11.73;99924.44;4896798;29;20543;-79
2022/06/02 08:00:20;;;;;;;1.85;1.75;;;;;;;45.79;12.54;99921.03;4896864;29;20539;-79
2022/06/02 08:03:15;;;;;;;1.70;1.60;;;;;;;41.21;15.64;99922.16;4896894;29;20076;-80
2022/06/02 08:06:01;;;;;;;1.73;1.63;;;;;;;42.14;15.25;99935.81;4840952;29;20042;-79
2022/06/02 08:08:36;;;;;;;3.78;1.80;;;;;;;43.63;14.24;99939.94;4841047;29;20487;-80
2022/06/02 08:11:29;;;;;;;1.95;1.35;;;;;;;44.99;12.76;99941.03;4822486;29;20046;-79
2022/06/02 08:14:06;;;;;;;1.70;1.60;;;;;;;42.30;14.46;99951.19;4807329;29;20509;-79
2022/06/02 08:16:49;;;;;;;1.92;1.80;;;;;;;37.49;17.91;99937.28;4822520;29;20047;-79
2022/06/02 08:19:24;;;;;;;1.67;1.52;;;;;;;33.84;21.00;99945.38;4826226;29;20037;-79
2022/06/02 08:22:00;;;;;;;1.98;1.80;;;;;;;31.00;25.24;99947.50;4840529;29;20042;-78
2022/06/02 08:24:50;;;;;;;1.90;1.70;;;;;;;29.12;27.77;99948.53;4840948;29;20034;-80
2022/06/02 08:27:46;;;;;;;3.85;1.90;;;;;;;27.51;29.93;99941.25;4825438;29;20106;-80
2022/06/02 08:30:49;;;;;;;1.98;1.80;;;;;;;26.45;32.81;99943.28;4840823;29;20070;-81
2022/06/02 08:33:29;;;;;;;2.30;2.08;;;;;;;25.47;33.60;99948.34;4827236;29;20038;-81
2022/06/02 08:35:55;;;;;;;1.90;1.70;;;;;;;24.89;35.05;99944.50;4898288;29;20180;-80
2022/06/02 08:38:49;;;;;;;2.17;1.80;;;;;;;24.44;35.55;99956.16;4915108;29;20115;-80
2022/06/02 08:42:02;;;;;;;2.10;1.90;;;;;;;24.17;36.08;99935.72;4854931;29;20035;-81
2022/06/02 08:44:47;;;;;;;2.60;2.08;;;;;;;23.85;36.49;99946.88;4933912;29;20095;-80
2022/06/02 08:47:46;;;;;;;2.30;2.05;;;;;;;23.51;36.99;99971.41;4933975;29;20416;-80
2022/06/02 08:50:59;;;;;;;1.92;1.73;;;;;;;23.20;38.14;99967.31;4933876;29;20078;-80
2022/06/02 08:53:43;;;;;;;2.75;2.08;;;;;;;22.96;39.81;99963.31;4877357;29;20081;-80
2022/06/02 08:56:19;;;;;;;1.95;1.70;;;;;;;22.80;39.88;99963.03;4877475;29;20045;-80
2022/06/02 08:58:50;;;;;;;3.08;1.80;;;;;;;22.89;40.76;99959.53;4876871;29;20186;-80
2022/06/02 09:01:31;;;;;;;1.60;1.50;;;;;;;23.04;38.73;99970.56;4877147;29;20124;-80
2022/06/02 09:04:33;;;;;;;2.72;1.85;;;;;;;22.92;38.71;99980.50;4876828;29;20490;-78
2022/06/02 09:07:02;;;;;;;2.47;1.70;;;;;;;22.99;40.15;99980.78;4876956;29;20048;-79
2022/06/02 09:09:57;;;;;;;2.10;1.88;;;;;;;23.07;39.84;99981.75;4876931;29;20049;-79
2022/06/02 09:12:43;;;;;;;1.98;1.77;;;;;;;22.79;40.16;99985.25;4876975;29;20041;-78
2022/06/02 09:15:50;;;;;;;2.47;1.67;;;;;;;22.66;40.62;99985.53;4877311;29;20480;-79
2022/06/02 09:18:36;;;;;;;1.35;1.35;;;;;;;22.92;40.59;99993.78;4880349;29;20048;-79
2022/06/02 09:21:14;;;;;;;2.92;1.80;;;;;;;22.84;39.53;99993.66;4895530;29;20040;-79
2022/06/02 09:24:15;;;;;;;1.50;1.30;;;;;;;22.58;38.77;99985.41;4905919;29;20139;-78
2022/06/02 09:26:53;;;;;;;1.15;1.10;;;;;;;22.69;40.97;100000.38;4914151;29;20539;-79
2022/06/02 09:29:30;;;;;;;3.53;1.42;;;;;;;22.54;40.36;99978.69;4914172;29;20052;-78
2022/06/02 09:32:09;;;;;;;1.40;1.30;;;;;;;22.55;40.90;99981.22;4913879;29;20047;-78
2022/06/02 09:35:05;;;;;;;2.80;1.40;;;;;;;22.88;40.88;100006.50;4898336;29;20036;-80
2022/06/02 09:37:49;;;;;;;1.63;1.52;;;;;;;22.96;39.83;100003.16;4914329;29;20184;-80
2022/06/02 09:40:17;;;;;;;2.03;1.60;;;;;;;22.88;39.57;100006.50;4914006;29;20099;-80
2022/06/02 09:43:01;;;;;;;3.72;2.03;;;;;;;22.74;39.59;99998.94;4913701;29;20040;-80
2022/06/02 09:45:29;;;;;;;1.80;1.60;;;;;;;22.61;39.03;99995.75;4913823;29;20040;-80
2022/06/02 09:48:18;;;;;;;1.58;1.45;;;;;;;22.46;40.77;100002.44;4913581;29;20044;-80
2022/06/02 09:51:38;;;;;;;1.83;1.58;;;;;;;22.27;41.02;99998.81;4913422;29;20047;-80
2022/06/02 09:54:03;;;;;;;;;;;;;;;22.10;40.81;100004.75;4876317;29;20064;-79
2022/06/02 09:56:44;;;;;;;2.60;1.50;;;;;;;21.96;39.87;100013.94;4876245;29;20311;-80
2022/06/02 09:59:30;;;;;;;1.40;1.30;;;;;;;21.62;40.40;100011.59;4860552;29;20052;-79
2022/06/02 10:02:36;;;;;;;1.42;1.33;;;;;;;21.42;40.65;100009.81;4876513;29;20033;-79
2022/06/02 10:05:22;;;;;;;1.60;1.50;;;;;;;21.37;42.56;100004.09;4897542;29;20082;-80
2022/06/02 10:08:15;;;;;;;1.85;1.30;;;;;;;21.38;41.15;99992.50;4913560;29;20039;-80
2022/06/02 10:10:48;;;;;;;2.15;1.83;;;;;;;21.53;41.25;100011.53;4913666;29;20754;-79
2022/06/02 10:13:31;;;;;;;5.65;2.05;;;;;;;21.34;41.37;100013.13;4913649;29;20111;-80
2022/06/02 10:16:24;;;;;;;1.48;1.38;;;;;;;21.31;41.57;100016.00;4913325;29;20054;-80
2022/06/02 10:19:17;;;;;;;2.30;1.60;;;;;;;21.38;41.91;100011.91;4913259;29;20669;-79
2022/06/02 10:22:19;;;;;;;1.42;1.33;;;;;;;21.26;42.04;100007.63;4913393;29;20389;-80
2022/06/02 10:25:03;;;;;;;2.58;1.50;;;;;;;21.31;42.40;100018.66;4913298;29;20137;-80
2022/06/02 10:27:37;;;;;;;5.15;1.70;;;;;;;21.32;42.75;100015.09;4913535;29;20044;-79
2022/06/02 10:30:31;;;;;;;1.60;1.50;;;;;;;21.34;42.73;100004.34;4946217;28;20043;-79
2022/06/02 10:33:26;;;;;;;1.40;1.30;;;;;;;21.44;43.29;100007.88;4992461;28;20077;-79
2022/06/02 10:36:10;;;;;;;1.50;1.45;;;;;;;21.74;42.28;100007.00;4992366;28;20019;-80
2022/06/02 10:38:35;;;;;;;1.50;1.40;;;;;;;21.99;41.42;100005.69;5007718;28;20089;-80
2022/06/02 10:41:16;;;;;;;1.35;1.30;;;;;;;21.98;40.97;100008.50;4992338;28;20407;-79
2022/06/02 10:43:50;;;;;;;;;;;;;;;21.98;41.37;99995.22;5007952;28;20034;-79
2022/06/02 10:46:45;;;;;;;1.40;1.30;;;;;;;21.86;41.42;100008.59;4992200;28;19917;-80
2022/06/02 10:49:38;;;;;;;1.60;1.50;;;;;;;21.66;40.45;100013.00;4992684;28;20037;-79
2022/06/02 10:52:21;;;;;;;1.20;1.10;;;;;;;21.50;40.88;100011.81;4992236;28;20092;-79
2022/06/02 10:55:24;;;;;;;1.25;1.13;;;;;;;21.36;40.22;99995.31;5009890;28;20053;-79
2022/06/02 10:58:20;;;;;;;1.40;1.30;;;;;;;21.44;40.63;100007.88;5014170;28;20080;-79
2022/06/02 11:01:04;;;;;;;1.42;1.33;;;;;;;21.44;41.19;100005.22;5017850;28;20044;-80
2022/06/02 11:03:45;;;;;;;2.40;1.20;;;;;;;21.47;42.17;100014.72;5017839;28;20401;-80
2022/06/02 11:06:16;;;;;;;2.08;1.45;;;;;;;21.51;41.28;100006.38;5035265;28;20026;-79
2022/06/02 11:09:19;;;;;;;2.78;2.05;;;;;;;21.38;39.38;100001.28;5035471;28;20025;-79
2022/06/02 11:12:16;;;;;;;1.88;1.50;;;;;;;21.11;39.03;99993.88;5035597;28;20025;-79
2022/06/02 11:15:13;;;;;;;1.40;1.30;;;;;;;21.22;39.75;100010.66;5017820;28;20496;-80
2022/06/02 11:18:09;;;;;;;1.52;1.27;;;;;;;21.30;40.40;100003.72;5035251;28;20117;-79
2022/06/02 11:21:09;;;;;;;3.30;1.33;;;;;;;21.37;41.06;100004.94;5017896;28;20167;-80
2022/06/02 11:24:12;;;;;;;2.17;1.42;;;;;;;21.38;40.92;100008.41;5035290;28;20465;-80
2022/06/02 11:26:49;;;;;;;1.50;1.38;;;;;;;21.46;41.39;100002.47;5034964;28;20034;-80
2022/06/02 11:29:37;;;;;;;1.10;1.00;;;;;;;21.51;40.58;99998.44;5035536;28;20187;-80
2022/06/02 11:32:22;;;;;;;1.48;1.13;;;;;;;21.47;39.92;99997.00;4992992;28;20034;-80
2022/06/02 11:35:09;;;;;;;1.00;1.00;;;;;;;21.46;39.70;99992.69;4976840;28;20522;-80
2022/06/02 11:38:19;;;;;;;1.17;0.98;;;;;;;21.50;40.15;99993.28;4993134;28;20114;-80
2022/06/02 11:40:59;;;;;;;0.98;0.98;;;;;;;21.37;40.01;99996.97;4976779;28;20030;-79
2022/06/02 11:43:52;;;;;;;0.90;0.90;;;;;;;21.28;39.82;99988.94;4993392;28;20070;-80
2022/06/02 11:46:41;;;;;;;1.10;1.00;;;;;;;21.21;38.91;99993.94;4976690;28;20046;-80
2022/06/02 11:49:43;;;;;;;0.93;0.93;;;;;;;21.27;40.80;99985.44;4992632;28;20084;-79
2022/06/02 11:52:33;;;;;;;2.05;1.10;;;;;;;21.34;40.02;99999.88;4992750;28;20046;-79
2022/06/02 11:55:14;;;;;;;0.95;0.95;;;;;;;21.40;40.53;99994.03;4976111;28;20097;-80
2022/06/02 11:57:51;;;;;;;1.02;1.02;;;;;;;21.50;39.81;99996.75;4992765;28;20557;-80
2022/06/02 12:00:36;;;;;;;1.05;1.05;;;;;;;21.59;40.20;100000.41;4992985;28;20405;-80
2022/06/02 12:03:22;;;;;;;1.92;1.35;;;;;;;21.68;39.88;100004.91;4937451;29;20118;-80
2022/06/02 12:06:00;;;;;;;1.30;1.20;;;;;;;21.70;38.99;99991.50;4953776;29;20054;-80
2022/06/02 12:08:34;;;;;;;2.05;1.17;;;;;;;21.87;38.58;99993.53;4937612;29;20043;-80
2022/06/02 12:11:26;;;;;;;1.20;1.17;;;;;;;21.98;39.07;100004.03;4952678;29;20035;-80
2022/06/02 12:14:12;;;;;;;2.65;1.50;;;;;;;21.95;39.36;99990.19;4953552;29;20162;-80
2022/06/02 12:17:10;;;;;;;1.65;1.20;;;;;;;21.68;38.00;100003.09;4937690;29;20134;-79
2022/06/02 12:19:39;;;;;;;1.38;1.27;;;;;;;21.54;38.60;99995.53;4937535;29;20031;-79
2022/06/02 12:22:28;;;;;;;1.42;1.33;;;;;;;21.55;38.63;100004.31;4953481;29;20031;-80
2022/06/02 12:25:25;;;;;;;1.25;1.25;;;;;;;21.54;37.96;100005.28;4953639;29;20027;-79
2022/06/02 12:28:05;;;;;;;1.35;1.25;;;;;;;21.42;37.70;100010.66;4953481;29;20051;-79
2022/06/02 12:30:51;;;;;;;1.30;1.30;;;;;;;21.31;38.23;100008.06;4953502;29;20032;-79
2022/06/02 12:33:35;;;;;;;1.40;1.30;;;;;;;21.27;38.68;100004.00;4937221;29;20097;-80
2022/06/02 12:36:12;;;;;;;1.52;1.42;;;;;;;21.31;39.02;100018.66;4953415;29;20439;-80
2022/06/02 12:39:04;;;;;;;1.35;1.27;;;;;;;21.34;39.39;100023.72;4937339;29;20171;-80
2022/06/02 12:42:07;;;;;;;1.50;1.20;;;;;;;21.32;38.28;100017.75;5033897;28;20026;-80
2022/06/02 12:44:48;;;;;;;1.27;1.17;;;;;;;21.36;39.01;100005.03;5033110;28;20036;-80
2022/06/02 12:47:37;;;;;;;2.30;1.30;;;;;;;21.56;38.14;100020.06;5033334;28;20424;-80
2022/06/02 12:50:40;;;;;;;1.40;1.30;;;;;;;21.75;38.03;100015.84;5015686;28;20036;-79
2022/06/02 12:53:17;;;;;;;1.45;1.35;;;;;;;22.06;38.48;100019.25;5033264;28;20087;-80
2022/06/02 12:56:16;;;;;;;1.30;1.30;;;;;;;21.99;37.92;100023.41;5033318;28;20118;-80
2022/06/02 12:59:01;;;;;;;2.30;1.13;;;;;;;21.99;38.15;100010.16;5015653;28;20061;-80
2022/06/02 13:01:32;;;;;;;3.13;1.38;;;;;;;21.93;37.11;100016.84;5015634;28;20025;-79
2022/06/02 13:04:19;;;;;;;1.02;1.02;;;;;;;22.02;37.31;100015.19;5032965;28;20029;-80
2022/06/02 13:07:22;;;;;;;2.78;1.30;;;;;;;22.16;36.62;100021.00;5033542;28;20516;-80